Current Month

Pierce College

Hourly Data | America/Los_Angeles
as of 9/20/21 4:17 AM PDT
Date & Time Temp Max (°F) Temp Min (°F) RH (%) Dew Pt (°F) Latest Rain (In) Soil Temp (°F) Soil Moist (%) Wind Spd (mph) Wind Dir (°) Wind Gust (mph) Leaf Wet Raw (mV) Net Radiation (W/m²) Evap Pan Max Wind (mph) Evap Pan H2O Max Temp (°F) Evap Pan Level (In)
9/20/21 - 0400 57.1 55.6 85 52.0 0.00 81.2 23.8 0.5 SSE | 167 1.9 271 -16 1.2 49.7 3.7
9/20/21 - 0300 57.8 56.4 84 52.4 0.00 81.4 23.8 0.3 SSE | 162 1.3 261 -28 1.0 51.6 3.7
9/20/21 - 0200 59.3 57.4 83 53.0 0.00 81.5 23.8 0.5 SSE | 164 1.8 259 -43 0.7 53.0 3.7
9/20/21 - 0100 60.6 58.8 80 53.5 0.00 81.6 23.9 0.5 SSE | 166 2.1 271 -52 0.9 54.0 3.7
9/20/21 - 0000 62.1 60.3 77 54.0 0.00 81.9 23.9 0.4 SSE | 167 1.4 272 -54 1.0 56.1 3.7
9/19/21 - 2300 63.8 61.8 74 54.5 0.00 81.2 23.9 0.2 SE | 143 1.5 272 -57 0.8 59.7 3.7
9/19/21 - 2200 66.4 63.7 69 54.8 0.00 81.9 23.9 0.5 ESE | 113 2.4 270 -61 0.8 63.0 3.7
9/19/21 - 2100 68.6 66.1 67 55.8 0.00 81.7 23.9 0.8 ESE | 112 2.3 270 -64 1.1 65.3 3.7
9/19/21 - 2000 72.1 68.6 61 56.0 0.00 81.6 23.9 0.7 E | 90 2.4 268 -70 2.0 71.0 3.8
9/19/21 - 1900 79.7 72.0 50 55.9 0.00 81.0 23.9 1.3 ENE | 69 3.9 267 -51 1.9 82.8 3.8
9/19/21 - 1800 85.4 79.6 36 53.2 0.00 80.8 23.8 2.0 WNW | 297 7.5 266 68 5.6 90.3 3.8
9/19/21 - 1700 85.4 83.5 37 55.2 0.00 80.7 23.7 1.9 ENE | 61 5.2 265 216 4.8 93.2 3.8
9/19/21 - 1600 84.6 83.4 37 55.1 0.00 80.1 23.7 2.4 NE | 52 6.0 266 350 3.0 94.5 3.8
9/19/21 - 1500 85.0 83.3 37 54.8 0.00 80.0 23.6 2.5 ENE | 65 5.7 265 452 3.7 97.1 3.8
9/19/21 - 1400 85.0 81.1 35 52.7 0.00 79.6 23.6 1.9 ENE | 61 4.8 265 509 4.1 99.8 3.8
9/19/21 - 1300 81.9 78.3 39 53.1 0.00 79.5 23.5 1.9 E | 85 6.2 265 531 3.8 99.7 3.8
9/19/21 - 1200 78.3 73.5 45 53.3 0.00 79.6 23.5 1.5 NNE | 19 5.2 266 499 2.9 97.4 3.8
9/19/21 - 1100 73.8 68.6 51 52.5 0.00 79.7 23.5 1.4 NNE | 33 4.2 266 427 4.3 87.2 3.7
9/19/21 - 1000 69.6 63.7 62 53.5 0.00 79.8 23.6 0.9 N | 8 4.1 267 323 4.1 74.4 3.7
9/19/21 - 0900 64.0 59.5 74 53.4 0.00 80.1 23.7 0.7 N | 11 3.2 269 219 2.1 65.2 3.7
9/19/21 - 0800 59.4 51.7 90 51.6 0.00 80.5 23.7 0.6 SSE | 152 1.9 291 56 1.4 54.5 3.7
9/19/21 - 0700 53.3 52.0 90 49.8 0.00 80.5 23.8 0.1 SSE | 154 1.1 340 -5 0.0 44.7 3.7
9/19/21 - 0600 53.3 52.5 89 49.8 0.00 80.9 23.8 0.1 SSE | 158 0.9 356 -8 0.0 44.7 3.7
9/19/21 - 0500 53.9 52.7 89 50.1 0.00 81.3 23.8 0.3 S | 175 1.5 330 -9 0.0 46.0 3.7
9/19/21 - 0400 54.8 53.1 87 50.4 0.00 81.3 23.9 0.4 SSE | 159 2.4 303 -10 0.5 45.5 3.7
9/19/21 - 0300 54.9 54.1 86 50.3 0.00 81.9 23.9 0.2 SSE | 156 1.0 248 -13 0.0 47.8 3.7
9/19/21 - 0200 55.3 54.4 84 50.0 0.00 81.9 23.9 0.4 SSE | 161 1.9 232 -24 0.7 48.4 3.7
9/19/21 - 0100 56.8 55.0 81 50.4 0.00 82.2 24.0 0.3 SSE | 166 1.6 227 -39 0.0 47.2 3.7
9/19/21 - 0000 58.4 56.2 79 50.7 0.00 82.3 24.0 0.4 S | 174 1.4 247 -58 0.2 49.2 3.7
9/18/21 - 2300 59.9 58.3 75 51.0 0.00 82.2 24.0 0.3 S | 186 1.9 267 -62 0.5 52.4 3.7
9/18/21 - 2200 64.5 59.8 67 51.1 0.00 82.4 24.0 0.6 SW | 222 4.3 269 -68 3.2 62.4 3.7
9/18/21 - 2100 66.8 64.2 61 51.9 0.00 82.3 24.0 2.1 WSW | 244 5.3 268 -74 4.0 65.9 3.7
9/18/21 - 2000 70.7 66.7 56 52.2 0.00 82.2 24.0 3.3 SW | 231 6.8 268 -77 5.0 71.9 3.8
9/18/21 - 1900 77.4 70.6 48 52.9 0.00 82.1 24.0 4.0 SW | 236 8.0 267 -53 6.9 83.3 3.8
9/18/21 - 1800 82.8 77.3 38 52.2 0.00 81.7 23.9 3.4 WSW | 237 12.6 266 65 9.4 89.9 3.8
9/18/21 - 1700 82.8 81.8 32 49.6 0.00 81.1 23.9 1.7 NE | 53 3.8 265 218 2.7 91.9 3.8
9/18/21 - 1600 83.1 81.5 33 50.1 0.00 81.0 23.8 2.2 ENE | 59 6.2 265 356 3.9 93.5 3.8
9/18/21 - 1500 83.3 80.3 35 52.0 0.00 80.7 23.7 1.8 NE | 50 6.4 264 457 3.9 94.6 3.8
9/18/21 - 1400 80.4 77.3 43 54.2 0.00 80.5 23.7 2.3 E | 79 6.1 266 521 4.2 95.9 3.8
9/18/21 - 1300 79.0 73.4 47 55.0 0.00 80.3 23.7 1.7 NNE | 21 5.8 266 537 4.6 97.7 3.8
9/18/21 - 1200 73.5 71.3 54 54.7 0.00 80.2 23.7 1.6 ENE | 57 5.3 266 504 4.8 96.3 3.8
9/18/21 - 1100 71.8 66.7 59 54.1 0.00 80.3 23.7 1.5 NNE | 16 4.7 266 427 4.3 85.3 3.7
9/18/21 - 1000 67.4 63.3 65 53.3 0.00 80.8 23.7 1.1 ENE | 60 3.4 267 272 3.2 75.5 3.7
9/18/21 - 0900 63.9 59.0 73 52.4 0.00 80.8 23.8 1.6 WSW | 258 4.2 270 174 3.3 67.8 3.7
9/18/21 - 0800 59.2 52.2 88 52.1 0.00 81.0 23.9 0.3 S | 188 2.9 335 59 2.0 54.5 3.7
9/18/21 - 0700 53.1 51.9 89 49.6 0.00 81.3 23.9 0.3 S | 187 2.0 344 -5 0.9 45.5 3.7
9/18/21 - 0600 53.6 52.3 88 49.7 0.00 81.5 23.9 0.3 S | 177 2.0 322 -9 0.0 45.5 3.7
9/18/21 - 0500 54.4 53.2 88 50.1 0.00 81.8 24.0 0.2 SSE | 164 1.5 287 -10 0.1 46.5 3.7
9/18/21 - 0400 54.7 54.0 87 50.5 0.00 82.0 24.0 0.3 SSE | 162 1.6 241 -13 0.1 48.1 3.7
9/18/21 - 0300 55.8 54.5 85 50.9 0.00 82.3 24.0 0.5 SSE | 161 1.8 226 -21 0.6 49.5 3.7
9/18/21 - 0200 57.2 55.4 82 50.9 0.00 82.6 24.1 0.3 SSE | 161 1.5 218 -37 0.5 50.1 3.7
9/18/21 - 0100 57.7 56.6 79 50.7 0.00 82.6 24.1 0.3 S | 171 1.6 261 -53 1.3 51.4 3.7
9/18/21 - 0000 59.3 57.4 77 51.3 0.00 83.0 24.1 0.3 S | 172 1.6 273 -56 0.6 51.6 3.7
9/17/21 - 2300 61.4 59.0 73 51.9 0.00 82.9 24.1 0.4 S | 173 1.9 272 -58 0.0 53.0 3.7
9/17/21 - 2200 63.9 61.2 68 51.4 0.00 83.2 24.2 0.2 SSE | 165 1.4 271 -63 0.0 57.2 3.7
9/17/21 - 2100 67.1 63.8 61 51.7 0.00 83.0 24.2 0.6 S | 191 3.8 268 -72 2.5 62.5 3.7
9/17/21 - 2000 71.6 67.0 54 52.0 0.00 82.9 24.2 2.5 SW | 225 6.0 268 -79 3.8 67.5 3.8
9/17/21 - 1900 78.1 71.4 37 46.3 0.00 82.7 24.1 2.4 S | 185 6.4 266 -61 4.2 79.4 3.8
9/17/21 - 1800 80.3 77.6 31 45.6 0.00 82.5 24.1 3.0 SE | 134 7.5 264 69 4.4 84.9 3.8
9/17/21 - 1700 83.6 80.1 24 41.4 0.00 81.8 24.1 2.8 E | 88 7.9 264 224 4.8 92.3 3.8
9/17/21 - 1600 83.9 81.9 33 50.6 0.00 81.9 24.0 2.2 NE | 55 6.2 264 354 3.0 93.9 3.8
9/17/21 - 1500 82.7 79.5 38 52.8 0.00 81.4 23.9 1.9 NE | 54 5.6 265 449 4.2 94.1 3.8
9/17/21 - 1400 80.0 76.5 42 53.7 0.00 81.4 23.9 1.8 NE | 52 5.3 266 514 4.4 95.4 3.8
9/17/21 - 1300 77.3 71.6 48 54.2 0.00 81.0 23.9 1.3 NNW | 341 5.5 266 534 5.7 95.8 3.8
9/17/21 - 1200 73.0 66.8 56 54.0 0.00 81.3 23.9 1.5 NNE | 28 4.4 266 499 3.1 95.0 3.8
9/17/21 - 1100 68.5 62.1 67 53.6 0.00 81.6 23.9 1.4 ENE | 65 4.3 267 319 3.3 83.2 3.8
9/17/21 - 1000 62.3 59.1 77 53.5 0.00 81.5 24.0 1.0 ESE | 112 4.0 270 115 2.4 76.4 3.7
9/17/21 - 0900 59.2 57.8 83 53.4 0.00 81.6 24.1 1.5 S | 181 4.7 272 40 3.4 68.1 3.7
9/17/21 - 0800 58.2 56.8 87 53.5 0.00 81.9 24.1 0.8 E | 92 3.9 274 13 2.0 64.1 3.7
9/17/21 - 0700 57.1 56.3 89 53.4 0.00 82.2 24.1 0.7 E | 80 3.3 281 -2 2.5 61.0 3.7
9/17/21 - 0600 56.5 52.4 90 51.3 0.00 82.6 24.2 0.7 SSE | 155 3.8 303 -3 1.4 58.6 3.7
9/17/21 - 0500 53.6 52.3 89 49.8 0.00 82.9 24.2 0.1 SSE | 163 0.9 331 -10 0.0 45.9 3.7
9/17/21 - 0400 54.7 53.0 88 50.5 0.00 82.9 24.2 0.3 SSE | 155 1.0 292 -11 0.0 45.7 3.7
9/17/21 - 0300 55.2 53.4 87 50.4 0.00 83.5 24.3 0.5 S | 173 1.5 241 -14 0.8 46.6 3.7
9/17/21 - 0200 56.1 55.0 84 50.8 0.00 83.6 24.4 0.3 S | 189 1.6 227 -19 0.6 48.4 3.7
9/17/21 - 0100 57.1 55.4 82 51.0 0.00 83.8 24.4 0.4 S | 181 1.1 233 -34 0.8 49.0 3.7
9/17/21 - 0000 58.7 56.9 79 51.2 0.00 83.9 24.4 0.2 S | 170 1.0 251 -54 0.0 51.9 3.7
9/16/21 - 2300 60.9 58.4 73 50.9 0.00 84.0 24.4 0.2 SE | 127 1.3 273 -64 0.0 53.5 3.7
9/16/21 - 2200 63.4 60.7 67 50.9 0.00 84.3 24.4 0.1 SE | 141 1.7 270 -67 0.0 55.9 3.7
9/16/21 - 2100 67.4 63.3 61 51.5 0.00 84.1 24.4 0.5 S | 170 3.0 268 -72 1.7 62.1 3.7
9/16/21 - 2000 71.7 67.3 55 52.4 0.00 81.0 24.4 2.0 SSW | 212 5.6 268 -81 3.8 69.6 3.8
9/16/21 - 1900 78.7 71.6 43 50.8 0.00 80.4 24.4 2.2 S | 176 4.6 266 -56 3.3 79.3 3.8
9/16/21 - 1800 80.8 78.0 33 47.5 0.00 81.0 24.4 2.0 NE | 54 6.0 264 70 2.6 84.5 3.8
9/16/21 - 1700 82.5 80.4 26 43.2 0.00 80.4 24.3 2.5 NE | 55 6.1 264 226 3.0 87.2 3.8
9/16/21 - 1600 82.6 80.9 32 49.4 0.00 80.1 24.2 3.2 ENE | 63 8.1 264 365 4.4 89.7 3.8
9/16/21 - 1500 83.2 82.0 34 51.4 0.00 79.0 24.1 2.7 ENE | 76 6.0 264 461 5.3 92.9 3.8
9/16/21 - 1400 83.4 78.9 37 53.1 0.00 79.1 24.1 2.0 NNE | 22 5.3 264 517 4.1 95.2 3.8
9/16/21 - 1300 80.3 76.2 42 53.8 0.00 79.4 24.1 1.5 N | 351 5.3 265 537 4.3 97.0 3.8
9/16/21 - 1200 76.2 71.8 50 53.2 0.00 78.3 24.1 1.8 NNW | 332 6.2 266 508 5.3 95.1 3.8
9/16/21 - 1100 73.6 67.2 55 52.7 0.00 80.4 24.1 1.2 NNE | 13 5.2 266 433 4.1 85.1 3.8
9/16/21 - 1000 67.5 62.0 65 52.4 0.00 81.1 24.1 1.4 NE | 50 3.9 266 308 3.6 75.6 3.7
9/16/21 - 0900 62.4 58.5 75 52.3 0.00 82.7 24.2 1.3 ENE | 60 4.8 269 124 3.2 74.0 3.7
9/16/21 - 0800 58.6 56.9 83 52.7 0.00 82.9 24.3 0.5 NE | 36 3.2 272 8 1.4 64.6 3.7
9/16/21 - 0700 57.1 55.3 86 51.7 0.00 83.1 24.3 1.4 SSW | 212 3.8 273 -10 2.9 61.3 3.7
9/16/21 - 0600 56.6 55.7 88 52.6 0.00 83.1 24.3 1.5 SSE | 155 4.3 274 -11 2.7 60.7 3.7
9/16/21 - 0500 56.8 56.3 88 53.1 0.00 83.6 24.4 0.8 E | 96 2.8 275 -8 1.7 60.4 3.7
9/16/21 - 0400 56.7 55.0 88 52.8 0.00 83.7 24.4 0.9 E | 79 3.3 271 -6 1.9 59.3 3.7
9/16/21 - 0300 56.1 55.0 85 51.1 0.00 84.1 24.5 0.1 SE | 129 1.3 250 -22 0.0 48.9 3.7
9/16/21 - 0200 57.8 55.9 82 51.4 0.00 84.3 24.5 0.3 ESE | 120 3.4 222 -41 1.3 51.6 3.7
9/16/21 - 0100 58.8 57.2 77 50.9 0.00 84.5 24.5 0.2 SE | 131 2.5 250 -60 0.6 50.9 3.7
9/16/21 - 0000 60.5 58.3 70 49.8 0.00 84.8 24.6 0.2 SSE | 167 1.5 271 -65 0.3 52.3 3.7
9/15/21 - 2300 62.8 60.4 64 49.5 0.00 84.8 24.6 0.4 S | 171 1.6 269 -67 1.2 55.1 3.7
9/15/21 - 2200 66.8 62.4 55 47.9 0.00 84.9 24.6 0.2 SE | 130 3.1 268 -72 1.9 60.0 3.7
9/15/21 - 2100 71.5 66.7 48 48.8 0.00 84.9 24.6 0.4 SSE | 157 2.2 266 -78 1.5 65.4 3.8
9/15/21 - 2000 76.1 71.4 43 49.5 0.00 84.7 24.6 1.6 SW | 218 5.1 266 -84 4.1 74.0 3.8
9/15/21 - 1900 82.1 76.2 32 46.1 0.00 84.3 24.6 3.3 SSW | 201 7.9 264 -57 5.1 84.7 3.8
9/15/21 - 1800 88.7 82.0 17 35.1 0.00 84.2 24.5 3.7 S | 185 7.5 263 77 5.8 92.5 3.8
9/15/21 - 1700 90.5 88.5 17 38.9 0.00 83.9 24.4 2.2 SE | 129 7.5 262 226 5.9 94.1 3.8
9/15/21 - 1600 90.5 89.1 15 36.5 0.00 83.7 24.3 2.4 ENE | 61 5.2 262 357 3.3 96.6 3.8
9/15/21 - 1500 90.4 88.1 22 45.0 0.00 83.3 24.2 2.1 NE | 36 6.8 262 456 2.9 99.3 3.8
9/15/21 - 1400 89.1 83.6 28 49.8 0.00 82.3 24.2 1.6 NE | 40 5.8 263 517 4.9 103.2 3.8
9/15/21 - 1300 86.2 80.3 35 53.0 0.00 82.6 24.1 1.3 NE | 35 6.7 264 538 6.4 105.6 3.8
9/15/21 - 1200 80.9 74.7 43 53.3 0.00 81.2 24.1 1.6 NNE | 24 4.6 264 507 2.7 103.4 3.8
9/15/21 - 1100 75.0 68.2 52 53.8 0.00 81.9 24.2 1.4 NNE | 29 4.1 265 439 2.1 89.7 3.8
9/15/21 - 1000 68.5 62.6 68 55.0 0.00 82.9 24.3 1.2 ESE | 122 4.2 266 326 3.1 76.9 3.7
9/15/21 - 0900 62.6 58.2 86 55.5 0.00 83.1 24.3 0.9 S | 172 2.9 269 114 3.1 73.1 3.7
9/15/21 - 0800 58.6 58.0 89 55.1 0.00 81.8 24.4 1.1 E | 96 4.5 274 17 2.7 64.8 3.7
9/15/21 - 0700 58.6 57.3 89 54.8 0.00 83.1 24.4 0.7 ENE | 75 2.8 272 -2 1.5 61.3 3.7
9/15/21 - 0600 57.4 53.5 87 51.4 0.00 82.2 24.5 0.5 SE | 124 2.6 264 -8 1.1 56.7 3.7
9/15/21 - 0500 56.1 54.3 86 51.0 0.00 81.8 24.5 0.2 SSE | 155 1.1 276 -15 0.0 46.0 3.7
9/15/21 - 0400 56.9 56.0 83 51.3 0.00 81.1 24.5 0.2 SSE | 160 1.0 234 -28 0.0 47.1 3.7
9/15/21 - 0300 58.3 56.5 79 50.7 0.00 81.4 24.6 0.3 SSE | 152 1.1 252 -50 0.0 48.1 3.7
9/15/21 - 0200 58.8 57.8 69 48.0 0.00 83.2 24.6 0.4 SSE | 158 1.7 272 -61 0.0 48.6 3.7
9/15/21 - 0100 60.1 58.4 58 44.5 0.00 85.2 24.6 0.4 SSE | 158 1.5 267 -63 1.3 49.2 3.7
9/15/21 - 0000 62.0 59.9 56 45.1 0.00 85.2 24.6 0.4 SSE | 161 1.3 267 -67 0.9 51.1 3.7
9/14/21 - 2300 65.0 61.8 49 44.0 0.00 85.6 24.7 0.4 SSE | 161 1.3 266 -68 0.0 53.8 3.7
9/14/21 - 2200 67.6 64.9 42 42.7 0.00 85.3 24.7 0.3 SSE | 162 1.6 265 -71 0.7 56.9 3.7
9/14/21 - 2100 72.3 67.4 35 40.2 0.00 85.5 24.7 0.3 S | 172 1.3 264 -76 1.3 63.0 3.8
9/14/21 - 2000 77.6 72.3 28 40.0 0.00 85.2 24.7 0.2 ESE | 110 2.1 263 -86 1.3 74.1 3.8
9/14/21 - 1900 85.0 77.5 18 33.0 0.00 84.9 24.6 2.4 S | 177 5.9 262 -62 3.9 86.0 3.8
9/14/21 - 1800 91.2 84.9 9 22.2 0.00 84.7 24.6 2.7 SSW | 206 6.0 261 73 4.7 94.0 3.8
9/14/21 - 1700 92.3 89.9 9 24.6 0.00 84.2 24.5 3.7 SSW | 196 7.9 261 228 6.3 98.8 3.8
9/14/21 - 1600 94.2 91.9 9 24.6 0.00 83.7 24.4 2.8 ESE | 111 7.4 261 358 4.2 100.4 3.8
9/14/21 - 1500 95.4 93.1 8 24.6 0.00 83.6 24.4 2.4 ENE | 57 5.0 261 452 3.4 101.7 3.8
9/14/21 - 1400 93.8 90.4 14 35.2 0.00 80.5 24.3 2.4 NE | 45 6.4 261 512 3.2 106.7 3.8
9/14/21 - 1300 90.9 86.3 20 42.1 0.00 83.0 24.2 1.9 NE | 39 4.6 262 532 4.1 109.6 3.8
9/14/21 - 1200 86.4 81.4 22 40.8 0.00 83.0 24.2 1.6 NE | 38 5.2 262 505 3.5 109.2 3.8
9/14/21 - 1100 81.8 74.8 28 42.4 0.00 79.9 24.3 1.1 N | 11 4.1 262 438 2.6 97.2 3.8
9/14/21 - 1000 74.8 69.2 40 46.2 0.00 83.6 24.4 1.0 NNE | 29 3.3 263 336 2.4 81.2 3.7
9/14/21 - 0900 70.1 64.8 48 47.0 0.00 83.7 24.5 0.5 NNE | 29 2.8 264 201 1.3 67.4 3.7
9/14/21 - 0800 65.0 54.0 65 46.8 0.00 84.2 24.6 0.2 ESE | 104 1.8 269 38 0.0 50.7 3.7
9/14/21 - 0700 54.0 52.3 79 46.4 0.00 84.7 24.6 0.5 SSE | 159 1.3 252 -38 0.0 43.4 3.7
9/14/21 - 0600 53.8 52.3 75 45.4 0.00 84.8 24.6 0.3 SSE | 158 1.5 266 -56 0.0 43.8 3.7
9/14/21 - 0500 55.0 53.8 66 42.9 0.00 85.1 24.7 0.7 SSE | 150 1.8 269 -62 0.5 44.3 3.7
9/14/21 - 0400 55.9 54.4 62 42.4 0.00 84.8 24.7 0.4 SSE | 164 1.3 268 -63 0.0 44.7 3.7
9/14/21 - 0300 58.0 55.7 61 43.1 0.00 85.9 24.8 0.3 SSE | 155 1.5 268 -67 0.8 46.4 3.7
9/14/21 - 0200 61.0 57.7 57 44.4 0.00 86.0 24.8 0.4 SSE | 159 1.3 267 -68 0.0 49.6 3.7
9/14/21 - 0100 62.4 60.2 51 42.8 0.00 86.3 24.8 0.5 SSE | 156 1.9 266 -67 0.8 51.2 3.7
9/14/21 - 0000 65.0 62.2 44 41.0 0.00 86.5 24.9 0.4 SSE | 165 1.6 266 -69 0.0 53.1 3.7
9/13/21 - 2300 67.0 64.8 40 40.7 0.00 86.5 24.9 0.3 SSE | 160 1.6 264 -72 0.0 57.2 3.7
9/13/21 - 2200 71.7 66.7 34 39.4 0.00 86.8 24.9 0.6 SSE | 165 1.7 264 -76 1.0 60.1 3.7
9/13/21 - 2100 75.4 71.5 25 35.6 0.00 86.6 24.9 0.5 SSE | 168 1.6 263 -81 0.8 67.6 3.8
9/13/21 - 2000 85.3 75.3 13 24.6 0.00 85.8 24.9 0.4 SSE | 168 3.2 262 -90 2.3 82.6 3.8
9/13/21 - 1900 93.2 85.3 13 32.8 0.00 86.2 24.9 1.1 NW | 306 4.6 262 -66 4.1 95.2 3.8
9/13/21 - 1800 96.1 92.9 12 32.5 0.00 85.7 24.8 1.9 WNW | 298 8.4 261 76 6.0 102.2 3.8
9/13/21 - 1700 97.2 95.0 3 1.9 0.00 85.6 24.7 4.1 S | 180 8.6 260 227 6.8 104.1 3.8
9/13/21 - 1600 99.2 96.8 4 10.0 0.00 85.1 24.6 3.7 S | 173 8.8 260 356 6.2 107.0 3.8
9/13/21 - 1500 99.8 97.3 5 16.6 0.00 84.5 24.6 3.2 ESE | 102 8.4 260 453 5.3 107.2 3.8
9/13/21 - 1400 99.5 96.7 8 27.7 0.00 84.1 24.4 2.5 NE | 39 7.5 260 508 2.8 111.8 3.8
9/13/21 - 1300 97.0 92.7 12 34.2 0.00 84.1 24.4 1.9 NE | 45 5.9 261 527 5.3 119.9 3.8
9/13/21 - 1200 93.4 88.3 16 39.1 0.00 84.2 24.4 1.7 NE | 37 4.6 261 500 3.0 119.8 3.8
9/13/21 - 1100 88.2 82.1 24 43.9 0.00 84.3 24.4 1.4 NNE | 20 3.6 262 436 2.6 105.2 3.8
9/13/21 - 1000 82.3 74.2 34 47.8 0.00 84.5 24.6 0.7 NNE | 23 2.8 262 335 2.1 88.1 3.8
9/13/21 - 0900 75.1 68.8 44 50.0 0.00 84.8 24.7 0.5 N | 10 2.8 264 203 1.4 72.7 3.7
9/13/21 - 0800 68.8 57.1 61 47.7 0.00 84.9 24.8 0.2 SE | 140 1.5 269 35 0.0 54.5 3.7
9/13/21 - 0700 57.1 56.2 64 44.8 0.00 85.4 24.8 0.3 SSE | 159 1.2 269 -51 0.0 47.1 3.7
9/13/21 - 0600 57.9 56.6 63 44.8 0.00 86.0 24.8 0.3 SSE | 152 1.3 268 -58 0.0 46.2 3.7
9/13/21 - 0500 58.6 57.6 60 44.4 0.00 86.0 24.9 0.1 SSE | 165 1.0 268 -59 0.0 47.4 3.7
9/13/21 - 0400 60.1 58.2 54 42.7 0.00 86.7 25.0 0.3 SSE | 152 1.1 267 -60 0.0 49.1 3.7
9/13/21 - 0300 61.9 60.1 53 44.0 0.00 86.7 25.0 0.3 SSE | 158 1.0 266 -61 0.0 51.4 3.7
9/13/21 - 0200 63.4 61.7 47 41.9 0.00 87.1 25.0 0.3 SSE | 166 1.3 266 -64 0.4 54.4 3.7
9/13/21 - 0100 65.8 62.3 42 40.3 0.00 87.1 25.1 0.3 SSE | 154 2.0 265 -65 0.8 55.3 3.7
9/13/21 - 0000 67.1 65.7 36 38.5 0.00 87.5 25.1 0.5 SSE | 159 1.5 264 -65 0.0 57.6 3.7
9/12/21 - 2300 70.4 66.7 30 36.0 0.00 87.5 25.1 0.7 SSE | 162 1.8 264 -69 0.4 58.7 3.7
9/12/21 - 2200 73.9 69.7 25 34.0 0.00 87.5 25.1 0.2 SSE | 163 1.5 263 -74 1.3 67.1 3.7
9/12/21 - 2100 79.7 73.9 21 34.9 0.00 91.2 25.1 0.6 SSW | 198 2.8 263 -84 2.4 76.9 3.7
9/12/21 - 2000 85.2 79.6 25 43.1 0.00 87.3 25.1 2.9 WSW | 239 7.2 263 -91 5.0 85.8 3.8
9/12/21 - 1900 93.0 85.1 24 47.7 0.00 87.0 25.1 3.0 WSW | 245 6.9 263 -58 5.1 98.6 3.8
9/12/21 - 1800 96.7 92.4 11 30.7 0.00 87.0 25.0 3.1 SSW | 210 7.6 262 81 4.9 104.2 3.8
9/12/21 - 1700 97.3 95.9 7 23.0 0.00 86.6 24.8 3.5 S | 183 10.2 261 231 7.6 107.9 3.8
9/12/21 - 1600 98.7 96.5 7 22.2 0.00 85.9 24.8 4.3 S | 180 9.4 261 362 6.4 111.1 3.8
9/12/21 - 1500 99.6 97.5 6 21.0 0.00 85.4 24.7 3.9 SSE | 165 9.7 261 456 6.9 115.3 3.8
9/12/21 - 1400 100.6 97.0 8 26.2 0.00 85.2 24.6 3.2 SSE | 158 7.6 260 511 5.8 118.4 3.8
9/12/21 - 1300 99.3 94.5 14 38.7 0.00 85.1 24.6 2.5 ENE | 60 7.4 261 524 5.3 119.9 3.8
9/12/21 - 1200 94.7 89.4 23 48.2 0.00 85.1 24.6 2.2 NNE | 32 5.8 262 496 2.3 118.5 3.8
9/12/21 - 1100 89.6 84.6 27 49.5 0.00 84.8 24.6 1.5 NNE | 33 4.9 263 432 2.3 104.4 3.8
9/12/21 - 1000 84.6 78.9 32 49.0 0.00 85.4 24.7 0.8 N | 357 3.5 263 330 2.1 88.7 3.7
9/12/21 - 0900 79.3 75.2 37 48.8 0.00 85.2 24.9 0.3 N | 10 2.4 264 201 1.6 74.6 3.7
9/12/21 - 0800 75.3 61.6 53 48.5 0.00 86.2 24.9 0.0 ESE | 120 0.8 268 38 0.0 57.8 3.7
9/12/21 - 0700 61.5 59.9 62 47.5 0.00 86.5 25.0 0.3 SSE | 159 1.2 268 -46 0.0 51.4 3.7
9/12/21 - 0600 62.0 60.3 59 46.7 0.00 86.7 25.1 0.3 S | 172 1.2 268 -54 0.0 53.0 3.7
9/12/21 - 0500 63.6 61.4 57 46.9 0.00 87.1 25.1 0.4 SSE | 157 1.3 268 -55 0.0 54.5 3.7
9/12/21 - 0400 65.1 63.3 55 47.3 0.00 87.2 25.1 0.2 SSE | 154 1.4 267 -57 0.0 54.6 3.7
9/12/21 - 0300 66.1 64.4 53 47.5 0.00 84.1 25.2 0.5 SSE | 155 1.7 266 -58 0.0 55.8 3.7
9/12/21 - 0200 67.5 65.3 49 46.9 0.00 83.7 25.2 0.3 SSE | 156 1.3 266 -60 0.0 57.4 3.7
9/12/21 - 0100 70.4 67.4 43 45.5 0.00 88.0 25.2 0.3 SSE | 160 1.6 266 -61 0.6 59.5 3.7
9/12/21 - 0000 73.2 70.2 39 45.3 0.00 88.0 25.2 0.4 S | 175 1.6 266 -64 0.8 64.9 3.7
9/11/21 - 2300 77.1 73.2 37 47.4 0.00 88.3 25.3 1.5 SSW | 197 6.7 265 -74 4.3 71.0 3.8
9/11/21 - 2200 78.2 76.4 40 50.8 0.00 88.3 25.3 3.4 SSW | 208 8.6 265 -78 5.8 73.1 3.7
9/11/21 - 2100 81.0 78.1 37 51.0 0.00 88.4 25.3 3.1 WSW | 237 6.8 265 -82 4.9 76.0 3.8
9/11/21 - 2000 85.8 81.0 30 48.5 0.00 88.0 25.3 2.9 WSW | 250 7.5 264 -86 5.4 83.5 3.8
9/11/21 - 1900 94.2 85.7 24 47.9 0.00 87.8 25.2 1.6 WNW | 301 7.8 263 -53 5.6 94.3 3.8
9/11/21 - 1800 98.6 93.9 17 43.7 0.00 87.4 25.1 2.9 W | 277 9.5 262 90 6.7 101.1 3.8
9/11/21 - 1700 99.7 97.9 12 36.4 0.00 87.2 25.0 5.2 WSW | 253 11.8 262 241 8.7 107.5 3.8
9/11/21 - 1600 101.1 98.0 13 39.1 0.00 86.5 24.9 5.8 WSW | 252 11.6 262 372 8.7 111.0 3.8
9/11/21 - 1500 100.7 98.8 15 44.6 0.00 86.3 24.8 4.6 WSW | 257 11.0 262 462 8.9 113.0 3.8
9/11/21 - 1400 99.7 97.5 19 48.9 0.00 86.2 24.8 3.9 S | 188 10.5 262 515 7.9 116.8 3.8
9/11/21 - 1300 100.2 95.9 23 54.1 0.00 86.0 24.7 1.8 N | 3 8.4 262 523 6.5 121.0 3.8
9/11/21 - 1200 95.9 92.1 26 54.2 0.00 85.6 24.7 1.6 NE | 51 5.7 263 495 3.3 119.5 3.8
9/11/21 - 1100 92.5 87.9 29 53.9 0.00 85.9 24.8 1.3 N | 11 4.4 263 427 3.5 110.4 3.8
9/11/21 - 1000 89.0 81.9 34 53.6 0.00 85.9 24.8 1.1 W | 273 5.0 264 327 3.8 93.5 3.8
9/11/21 - 0900 81.9 77.9 40 53.0 0.00 86.2 25.0 0.7 WNW | 291 3.9 264 198 3.2 80.2 3.7
9/11/21 - 0800 78.0 65.3 59 55.2 0.00 86.6 25.0 0.3 ESE | 112 1.5 268 37 0.0 65.3 3.7
9/11/21 - 0700 66.1 64.9 69 54.9 0.00 86.9 25.1 0.3 SSE | 160 1.5 269 -39 0.0 61.0 3.7
9/11/21 - 0600 66.5 65.9 67 54.9 0.00 86.9 25.1 0.1 SSE | 156 1.1 269 -46 0.0 62.7 3.7
9/11/21 - 0500 66.8 65.9 67 55.3 0.00 87.1 25.1 0.5 SSE | 152 2.4 269 -48 0.8 63.5 3.7
9/11/21 - 0400 68.5 66.7 66 55.8 0.00 87.6 25.2 0.4 SSE | 156 1.2 269 -48 0.0 64.4 3.7
9/11/21 - 0300 69.6 68.1 63 55.8 0.00 87.7 25.2 0.2 SSE | 165 1.2 268 -49 1.0 65.6 3.7
9/11/21 - 0200 70.5 69.2 61 55.5 0.00 87.9 25.2 0.2 SSE | 165 1.7 268 -49 1.0 66.9 3.7
9/11/21 - 0100 72.5 70.2 56 55.1 0.00 88.0 25.3 0.5 SSE | 168 2.1 267 -51 1.2 67.9 3.7
9/11/21 - 0000 74.9 72.3 52 54.9 0.00 88.3 25.3 0.2 SE | 128 2.1 266 -55 0.9 70.5 3.8
9/10/21 - 2300 78.6 74.6 43 51.8 0.00 88.4 25.3 0.3 SSE | 156 1.5 266 -57 0.8 75.7 3.7
9/10/21 - 2200 80.5 78.5 38 51.9 0.00 88.4 25.3 2.2 SSW | 206 5.1 265 -63 3.6 76.6 3.7
9/10/21 - 2100 82.6 80.2 36 52.3 0.00 88.3 25.3 1.1 SSW | 201 3.5 265 -63 2.1 80.5 3.8
9/10/21 - 2000 87.6 82.4 34 53.6 0.00 87.9 25.3 2.5 SW | 229 6.9 264 -68 4.4 87.7 3.8
9/10/21 - 1900 93.4 87.6 29 53.8 0.00 87.5 25.2 0.6 NW | 316 3.3 264 -35 4.1 97.4 3.8
9/10/21 - 1800 95.6 93.1 26 54.7 0.00 87.6 25.1 1.6 NW | 314 7.1 264 98 6.4 102.5 3.8
9/10/21 - 1700 96.1 94.5 25 54.0 0.00 87.3 25.0 3.5 SSW | 211 8.5 264 246 6.6 107.4 3.8
9/10/21 - 1600 97.8 95.4 24 54.4 0.00 86.7 24.9 4.5 SSE | 164 9.1 264 372 6.4 110.8 3.8
9/10/21 - 1500 98.8 95.9 24 54.7 0.00 87.2 24.9 4.1 S | 181 8.9 264 464 7.5 112.9 3.8
9/10/21 - 1400 99.5 95.0 25 55.2 0.00 86.3 24.8 4.3 S | 172 9.5 263 516 7.4 117.0 3.8
9/10/21 - 1300 98.8 94.6 27 57.7 0.00 86.1 24.7 2.0 E | 85 7.5 264 522 4.7 125.9 3.8
9/10/21 - 1200 95.3 91.8 29 56.5 0.00 84.6 24.7 1.6 W | 265 5.1 263 495 4.0 123.5 3.8
9/10/21 - 1100 92.1 86.6 34 57.0 0.00 86.7 24.7 0.8 NNW | 334 3.7 264 426 3.3 108.6 3.8
9/10/21 - 1000 87.6 81.3 36 54.5 0.00 85.9 24.8 0.6 N | 3 3.3 264 320 2.8 94.9 3.7
9/10/21 - 0900 81.5 77.2 42 54.0 0.00 86.1 25.0 1.3 W | 261 4.2 265 188 3.3 83.1 3.7
9/10/21 - 0800 77.2 68.5 59 55.3 0.00 86.3 25.1 0.3 S | 174 1.4 268 14 0.8 69.8 3.7
9/10/21 - 0700 69.4 68.1 60 54.3 0.00 86.7 25.1 0.4 SSE | 168 1.9 268 -37 0.9 66.1 3.7
9/10/21 - 0600 69.4 68.2 61 54.7 0.00 84.6 25.1 0.5 S | 179 2.0 268 -37 1.5 65.3 3.7
9/10/21 - 0500 70.7 69.2 59 54.8 0.00 88.4 25.1 0.3 S | 172 1.5 268 -43 1.2 67.9 3.7
9/10/21 - 0400 73.0 70.6 54 54.7 0.00 89.4 25.2 0.8 SSW | 204 3.0 267 -46 1.9 70.6 3.7
9/10/21 - 0300 73.0 72.0 54 54.9 0.00 88.1 25.2 0.8 SSE | 163 2.0 267 -34 1.3 71.8 3.7
9/10/21 - 0200 73.1 71.7 54 54.6 0.00 87.3 25.2 0.7 SSE | 164 3.2 266 -37 1.7 72.0 3.8
9/10/21 - 0100 75.5 72.8 49 53.9 0.00 87.7 25.2 0.6 NE | 54 3.9 266 -43 1.7 74.2 3.8
9/10/21 - 0000 76.0 74.7 47 53.9 0.00 87.9 25.2 0.9 E | 97 3.3 266 -38 2.0 75.0 3.8
9/9/21 - 2300 76.8 74.7 47 54.2 0.00 87.9 25.2 0.2 SSE | 156 1.0 266 -47 0.5 71.9 3.7
9/9/21 - 2200 78.9 76.8 46 55.4 0.00 87.8 25.3 0.3 SE | 132 1.9 266 -53 0.0 74.6 3.8
9/9/21 - 2100 82.5 78.9 43 56.2 0.00 87.8 25.2 0.3 ESE | 109 1.8 266 -57 0.8 79.9 3.8
9/9/21 - 2000 88.7 82.4 39 57.8 0.00 87.4 25.2 0.7 E | 91 2.6 266 -65 1.1 88.2 3.8
9/9/21 - 1900 94.6 88.6 33 58.6 0.00 87.5 25.1 1.2 NE | 48 3.4 265 -31 2.4 97.4 3.8
9/9/21 - 1800 98.4 94.4 28 58.0 0.00 87.2 25.1 1.7 NE | 41 3.8 264 92 1.8 103.2 3.8
9/9/21 - 1700 100.5 98.0 26 58.4 0.00 86.5 25.0 2.3 NE | 50 8.7 264 235 3.1 106.5 3.8
9/9/21 - 1600 101.3 99.2 27 60.3 0.00 86.0 24.9 2.1 NE | 43 5.7 264 360 3.9 109.0 3.8
9/9/21 - 1500 101.3 97.9 29 61.1 0.00 85.5 24.8 2.2 NE | 42 5.5 264 455 3.0 109.4 3.8
9/9/21 - 1400 98.3 94.6 32 61.2 0.00 85.1 24.7 1.9 NNE | 31 5.3 264 513 4.5 116.6 3.8
9/9/21 - 1300 94.9 91.4 34 60.8 0.00 84.9 24.7 2.1 NE | 51 5.3 264 534 3.7 121.5 3.8
9/9/21 - 1200 91.5 88.5 37 60.5 0.00 85.2 24.7 2.2 NE | 44 5.0 264 503 2.3 121.7 3.8
9/9/21 - 1100 88.5 84.7 42 60.2 0.00 84.8 24.7 2.2 NE | 42 5.6 264 428 2.9 106.1 3.8
9/9/21 - 1000 85.3 80.2 46 60.2 0.00 85.3 24.8 1.3 NE | 44 3.8 266 320 2.7 94.3 3.7
9/9/21 - 0900 80.5 77.3 51 59.8 0.00 85.4 24.9 0.6 N | 1 2.5 266 193 2.3 84.5 3.7
9/9/21 - 0800 77.2 68.7 65 60.0 0.00 85.7 25.0 0.7 SE | 144 2.6 269 52 1.6 76.1 3.7
9/9/21 - 0700 68.8 67.5 73 59.2 0.00 86.0 25.0 0.1 SSE | 168 1.4 271 -23 0.0 67.8 3.7
9/9/21 - 0600 67.6 66.8 75 59.1 0.00 85.9 25.1 0.1 SSE | 152 1.0 271 -29 0.0 65.8 3.7
9/9/21 - 0500 67.3 66.8 76 59.1 0.00 86.2 25.1 0.1 S | 169 1.1 271 -34 0.0 65.0 3.7
9/9/21 - 0400 67.2 66.7 76 59.1 0.00 86.3 25.1 0.0 S | 170 0.9 271 -36 0.0 64.0 3.7
9/9/21 - 0300 67.3 66.4 75 58.9 0.00 86.8 25.1 0.0 SSE | 168 0.7 271 -39 0.0 63.9 3.7
9/9/21 - 0200 67.9 66.6 74 58.6 0.00 86.9 25.1 0.1 SSE | 167 1.0 271 -45 0.0 65.2 3.7
9/9/21 - 0100 70.0 67.7 71 59.2 0.00 86.8 25.1 0.6 E | 95 2.4 270 -51 1.5 68.8 3.7
9/9/21 - 0000 70.6 69.7 69 59.5 0.00 87.0 25.2 0.6 ESE | 108 2.7 270 -51 1.1 69.8 3.8
9/8/21 - 2300 76.1 70.3 65 59.7 0.00 87.2 25.2 1.2 E | 83 4.2 268 -57 2.7 75.0 3.8
9/8/21 - 2200 80.5 76.1 55 60.6 0.00 87.1 25.2 1.2 ENE | 73 3.6 267 -59 2.1 77.6 3.8
9/8/21 - 2100 84.2 80.4 46 59.2 0.00 87.2 25.1 0.4 E | 80 3.9 266 -62 1.2 79.2 3.8
9/8/21 - 2000 90.2 84.1 37 57.6 0.00 86.7 25.1 1.0 SW | 231 5.0 266 -69 2.9 88.8 3.8
9/8/21 - 1900 95.8 90.2 28 55.7 0.00 86.4 25.1 1.9 W | 265 5.8 264 -37 3.7 99.0 3.8
9/8/21 - 1800 98.4 94.8 24 53.5 0.00 86.2 25.0 3.9 WSW | 239 7.6 264 94 6.1 105.2 3.8
9/8/21 - 1700 100.5 98.1 26 58.2 0.00 85.9 24.9 1.6 WNW | 302 6.6 264 236 5.5 108.0 3.8
9/8/21 - 1600 99.0 95.3 28 58.4 0.00 85.4 24.8 2.0 SW | 235 7.5 264 363 5.7 109.5 3.8
9/8/21 - 1500 97.0 92.9 28 57.3 0.00 84.9 24.8 1.8 SW | 218 6.1 264 459 5.0 108.5 3.8
9/8/21 - 1400 94.2 89.3 32 57.0 0.00 84.5 24.7 1.6 N | 354 5.1 264 516 4.7 111.3 3.8
9/8/21 - 1300 89.8 85.9 35 56.8 0.00 84.5 24.7 1.8 NNE | 22 6.1 264 531 4.9 114.3 3.8
9/8/21 - 1200 86.9 81.1 41 57.7 0.00 84.3 24.7 2.5 NE | 53 5.9 264 502 3.2 113.7 3.8
9/8/21 - 1100 81.3 77.0 54 60.9 0.00 84.4 24.7 2.6 NE | 45 4.6 266 428 3.1 98.4 3.8
9/8/21 - 1000 78.0 75.3 58 61.3 0.00 84.7 24.8 2.1 NE | 49 5.3 266 316 3.6 86.8 3.8
9/8/21 - 0900 75.9 72.2 63 60.8 0.00 85.1 24.9 1.0 NE | 56 4.2 268 184 2.0 79.0 3.7
9/8/21 - 0800 72.9 63.6 78 60.7 0.00 85.4 25.0 0.1 NE | 38 2.9 272 34 0.9 66.5 3.7
9/8/21 - 0700 64.4 63.4 84 58.8 0.00 85.8 25.0 0.4 SSE | 160 1.8 274 -35 0.9 58.9 3.7
9/8/21 - 0600 64.9 63.7 82 58.8 0.00 85.5 25.0 0.5 S | 179 1.8 273 -43 1.1 59.1 3.7
9/8/21 - 0500 66.2 64.5 81 59.3 0.00 86.0 25.1 0.2 SSE | 163 1.3 273 -45 0.0 61.4 3.7
9/8/21 - 0400 67.3 65.9 77 59.3 0.00 86.3 25.1 0.3 SSE | 158 2.0 273 -47 0.0 62.1 3.7
9/8/21 - 0300 67.9 67.0 74 58.9 0.00 86.0 25.1 0.3 SSE | 165 1.3 271 -48 0.9 62.9 3.7
9/8/21 - 0200 68.9 67.7 72 59.0 0.00 86.4 25.1 0.1 SSE | 159 1.4 271 -48 0.0 63.4 3.7
9/8/21 - 0100 70.2 68.1 70 59.1 0.00 86.8 25.2 0.3 S | 173 1.8 270 -51 0.8 64.0 3.7
9/8/21 - 0000 71.7 69.9 67 59.4 0.00 87.0 25.2 0.2 S | 188 1.4 269 -52 0.0 65.7 3.7
9/7/21 - 2300 73.5 71.6 63 59.0 0.00 86.8 25.2 0.2 S | 183 1.4 268 -54 0.0 69.8 3.8
9/7/21 - 2200 77.5 73.3 56 58.4 0.00 86.8 25.2 0.2 SE | 139 1.4 267 -58 0.0 75.7 3.7
9/7/21 - 2100 80.2 77.4 53 60.4 0.00 86.7 25.2 1.6 SW | 233 5.2 267 -59 3.4 80.1 3.8
9/7/21 - 2000 85.9 80.0 41 56.0 0.00 85.7 25.1 1.2 S | 190 4.5 266 -65 3.5 85.6 3.8
9/7/21 - 1900 90.5 86.0 31 54.2 0.00 86.7 25.1 1.3 NNE | 15 4.8 264 -26 1.9 96.8 3.8
9/7/21 - 1800 95.0 90.4 27 54.3 0.00 85.7 25.0 2.5 SE | 130 6.9 264 100 4.3 102.9 3.8
9/7/21 - 1700 97.6 93.9 23 51.5 0.00 88.3 24.9 2.6 S | 181 7.5 263 245 5.1 106.6 3.8
9/7/21 - 1600 96.7 94.1 23 51.3 0.00 88.1 24.8 2.2 ENE | 70 5.4 264 370 4.0 107.7 3.8
9/7/21 - 1500 96.2 93.5 25 53.7 0.00 88.0 24.8 1.8 ENE | 66 6.0 264 462 4.0 107.7 3.8
9/7/21 - 1400 94.5 90.7 27 53.6 0.00 84.4 24.8 2.0 NE | 38 6.5 264 517 6.7 116.6 3.8
9/7/21 - 1300 92.1 88.2 29 53.5 0.00 87.2 24.7 2.3 NE | 41 4.9 264 527 2.7 119.4 3.8
9/7/21 - 1200 88.2 84.1 41 59.5 0.00 84.4 24.7 2.2 NE | 43 5.3 264 496 2.7 117.4 3.8
9/7/21 - 1100 84.4 79.4 49 60.5 0.00 84.4 24.7 1.5 NE | 37 4.4 266 432 3.3 104.4 3.8
9/7/21 - 1000 79.4 74.8 59 61.5 0.00 84.8 24.8 1.0 NNE | 14 4.1 266 325 2.5 88.0 3.8
9/7/21 - 0900 75.1 71.1 68 61.8 0.00 84.8 24.9 1.0 NNE | 29 3.5 268 185 2.8 78.2 3.7
9/7/21 - 0800 72.2 63.8 84 62.1 0.00 85.0 25.0 0.2 ESE | 103 1.9 273 70 1.0 67.6 3.7
9/7/21 - 0700 63.9 63.3 88 60.2 0.00 85.7 25.0 0.3 SSE | 165 2.2 245 -6 1.3 60.8 3.7
9/7/21 - 0600 64.5 63.6 88 60.2 0.00 85.6 25.1 0.1 SSE | 148 0.9 234 -13 0.0 60.1 3.7
9/7/21 - 0500 64.6 63.7 87 60.2 0.00 85.6 25.1 0.2 SSE | 153 1.2 223 -18 0.0 60.0 3.7
9/7/21 - 0400 65.0 63.8 86 60.1 0.00 86.1 25.1 0.4 S | 172 1.4 232 -24 0.8 60.1 3.7
9/7/21 - 0300 65.9 64.8 85 60.5 0.00 86.3 25.1 0.2 S | 175 1.2 252 -32 0.0 60.8 3.7
9/7/21 - 0200 66.6 65.7 84 61.1 0.00 86.0 25.1 0.1 S | 189 1.0 263 -43 0.0 61.8 3.7
9/7/21 - 0100 68.0 66.4 81 61.2 0.00 86.6 25.2 0.0 SSE | 154 0.8 267 -51 0.0 64.9 3.7
9/7/21 - 0000 69.2 67.8 78 61.3 0.00 88.1 25.2 0.3 E | 94 2.5 270 -55 0.8 69.5 3.7
9/6/21 - 2300 70.8 69.0 73 61.0 0.00 89.4 25.2 1.1 ENE | 58 3.2 270 -58 1.6 71.3 3.7
9/6/21 - 2200 73.3 70.7 70 61.5 0.00 89.7 25.2 1.5 NE | 45 3.4 270 -62 1.5 72.5 3.8
9/6/21 - 2100 76.1 73.3 60 59.6 0.00 86.7 25.2 1.5 E | 88 6.6 268 -66 4.4 75.8 3.7
9/6/21 - 2000 81.6 76.1 49 58.2 0.00 86.6 25.1 1.5 ENE | 60 4.2 266 -70 2.3 82.4 3.8
9/6/21 - 1900 88.1 81.4 40 57.6 0.00 86.2 25.1 2.5 S | 170 5.8 266 -26 4.6 92.9 3.8
9/6/21 - 1800 90.9 88.0 34 57.7 0.00 85.8 25.1 2.0 ENE | 62 5.2 264 106 4.5 98.8 3.8
9/6/21 - 1700 95.0 90.7 32 58.5 0.00 85.4 24.9 2.8 NE | 44 6.0 264 249 3.0 104.4 3.8
9/6/21 - 1600 98.1 94.3 29 58.5 0.00 83.9 24.8 2.7 NE | 54 5.8 264 373 3.2 110.0 3.8
9/6/21 - 1500 100.2 98.0 25 57.2 0.00 85.2 24.8 2.3 ENE | 69 5.1 263 462 2.6 114.4 3.8
9/6/21 - 1400 98.7 94.6 26 55.9 0.00 84.9 24.7 1.6 NNE | 12 4.7 263 519 4.1 121.6 3.8
9/6/21 - 1300 94.6 89.3 31 57.3 0.00 84.1 24.6 1.2 NE | 42 4.8 264 537 4.0 121.8 3.8
9/6/21 - 1200 89.9 83.3 39 58.6 0.00 83.9 24.6 1.5 NNE | 31 4.8 264 509 4.4 119.7 3.8
9/6/21 - 1100 83.8 78.4 48 60.0 0.00 84.2 24.6 1.4 NNE | 27 5.7 264 438 3.0 101.3 3.8
9/6/21 - 1000 79.2 74.3 55 59.6 0.00 84.3 24.7 1.3 NE | 41 3.5 265 328 2.3 87.4 3.8
9/6/21 - 0900 74.6 70.4 64 59.8 0.00 84.3 24.8 0.8 NNE | 20 2.9 266 196 1.9 77.6 3.7
9/6/21 - 0800 70.4 64.5 76 59.4 0.00 84.8 24.9 0.7 ESE | 111 2.7 271 34 2.0 67.2 3.7
9/6/21 - 0700 64.9 63.9 77 57.1 0.00 84.7 24.9 0.2 SSE | 159 3.2 269 -43 1.2 60.8 3.7
9/6/21 - 0600 65.5 64.0 75 56.7 0.00 87.4 25.0 0.8 SE | 146 3.9 271 -53 2.0 62.0 3.7
9/6/21 - 0500 66.5 63.7 75 57.0 0.00 85.4 25.0 0.7 S | 191 4.7 270 -52 1.8 61.8 3.7
9/6/21 - 0400 68.1 66.2 72 57.5 0.00 85.3 25.0 0.7 E | 101 3.2 270 -58 1.8 65.3 3.7
9/6/21 - 0300 69.9 68.0 66 56.8 0.00 85.7 25.0 0.8 ENE | 57 2.8 268 -61 1.6 66.4 3.7
9/6/21 - 0200 72.8 69.7 56 54.4 0.00 84.9 25.0 0.9 ENE | 64 2.8 266 -63 2.5 70.2 3.7
9/6/21 - 0100 76.8 72.7 43 50.6 0.00 86.6 25.0 1.1 NE | 42 3.7 264 -65 1.5 71.1 3.8
9/6/21 - 0000 78.3 76.3 29 41.2 0.00 83.3 25.1 0.2 NE | 43 2.2 264 -63 0.4 69.5 3.7
9/5/21 - 2300 84.7 78.2 15 29.0 0.00 84.1 25.0 0.9 SSE | 166 4.0 262 -66 2.6 76.9 3.8
9/5/21 - 2200 86.1 84.3 12 27.8 0.00 83.3 25.1 2.6 SSW | 209 5.3 262 -73 3.6 78.6 3.8
9/5/21 - 2100 87.9 85.8 13 29.6 0.00 83.2 25.0 2.7 SSW | 206 6.2 261 -79 4.3 84.4 3.8
9/5/21 - 2000 92.3 87.8 12 30.8 0.00 85.4 25.0 3.9 SW | 235 7.7 262 -83 5.3 90.8 3.8
9/5/21 - 1900 98.9 92.3 8 25.4 0.00 85.3 24.9 4.0 W | 261 10.0 261 -35 7.8 100.6 3.8
9/5/21 - 1800 102.9 98.9 8 28.1 0.00 84.8 24.8 2.4 WNW | 296 7.8 261 105 6.9 105.3 3.8
9/5/21 - 1700 106.7 102.9 10 36.4 0.00 81.6 24.7 2.2 WNW | 303 8.0 261 234 8.5 113.3 3.8
9/5/21 - 1600 108.3 106.4 11 40.4 0.00 84.1 24.6 2.7 WNW | 288 9.4 261 375 7.7 119.2 3.8
9/5/21 - 1500 109.7 107.0 9 35.8 0.00 83.2 24.5 2.4 WNW | 292 9.6 261 462 6.4 120.4 3.8
9/5/21 - 1400 109.0 104.8 7 31.0 0.00 82.7 24.4 1.4 WSW | 249 6.0 260 511 4.4 134.5 3.8
9/5/21 - 1300 105.7 100.8 8 31.2 0.00 82.3 24.4 1.5 NE | 44 4.6 260 525 3.6 134.0 3.8
9/5/21 - 1200 101.6 96.5 11 35.5 0.00 82.2 24.4 1.3 NNE | 23 4.7 260 497 2.3 132.2 3.8
9/5/21 - 1100 96.7 88.6 13 34.4 0.00 82.4 24.4 0.7 N | 7 3.1 260 436 2.4 115.3 3.8
9/5/21 - 1000 88.7 80.8 19 37.1 0.00 82.5 24.5 0.7 NNE | 23 2.6 261 332 2.4 95.2 3.8
9/5/21 - 0900 80.9 75.4 28 42.4 0.00 82.8 24.6 0.5 NNE | 28 2.1 262 214 0.0 81.5 3.7
9/5/21 - 0800 76.4 61.5 35 38.2 0.00 83.0 24.7 0.0 E | 96 0.4 264 44 0.0 60.3 3.7
9/5/21 - 0700 61.7 59.8 40 36.1 0.00 83.2 24.7 0.5 SSE | 162 1.2 265 -40 0.0 52.8 3.7
9/5/21 - 0600 61.0 59.4 39 35.2 0.00 83.7 24.7 0.2 SSE | 159 1.5 264 -48 0.6 52.4 3.7
9/5/21 - 0500 61.6 60.2 36 33.9 0.00 83.7 24.8 0.3 S | 169 1.1 264 -54 0.0 52.1 3.7
9/5/21 - 0400 63.1 61.4 34 33.6 0.00 84.4 24.8 0.3 S | 177 1.3 264 -56 0.0 52.4 3.7
9/5/21 - 0300 64.8 62.9 33 33.9 0.00 84.3 24.8 0.3 SSE | 160 1.1 264 -58 1.1 54.8 3.7
9/5/21 - 0200 66.2 64.3 30 32.6 0.00 84.5 24.9 0.4 SSE | 163 1.3 264 -60 0.0 56.5 3.7
9/5/21 - 0100 68.1 66.0 24 28.8 0.00 84.9 24.9 0.4 SSE | 155 1.3 263 -62 1.2 57.5 3.7
9/5/21 - 0000 72.2 67.9 16 22.2 0.00 84.9 24.9 0.3 SSE | 158 1.6 262 -64 1.3 62.4 3.7
9/4/21 - 2300 79.0 72.1 9 12.4 0.00 84.8 25.0 0.4 ESE | 112 1.8 262 -70 1.3 68.3 3.7
9/4/21 - 2200 81.2 77.0 6 8.1 0.00 84.7 24.9 1.7 SSW | 205 5.5 261 -81 4.1 74.3 3.7
9/4/21 - 2100 82.7 80.8 8 13.6 0.00 84.7 24.9 3.9 SSW | 207 8.2 261 -90 6.0 77.2 3.7
9/4/21 - 2000 87.1 82.5 6 12.0 0.00 84.8 24.9 3.6 SW | 217 8.6 261 -96 5.9 84.7 3.8
9/4/21 - 1900 93.8 87.2 6 13.8 0.00 84.6 24.9 2.6 W | 259 7.5 261 -42 5.7 94.9 3.8
9/4/21 - 1800 98.3 93.5 6 16.4 0.00 83.9 24.8 2.4 WNW | 301 8.0 260 106 8.3 98.8 3.8
9/4/21 - 1700 99.6 97.0 6 20.1 0.00 83.6 24.7 2.6 WNW | 300 9.5 260 258 9.5 105.4 3.8
9/4/21 - 1600 99.6 97.4 7 24.2 0.00 83.1 24.6 4.7 WSW | 248 10.5 261 390 8.2 108.4 3.8
9/4/21 - 1500 100.5 97.0 7 25.3 0.00 82.7 24.5 4.6 SSW | 207 17.0 261 484 12.3 112.1 3.8
9/4/21 - 1400 101.5 97.0 8 28.4 0.00 79.8 24.4 3.6 WSW | 239 13.0 261 535 9.1 120.7 3.8
9/4/21 - 1300 99.9 95.4 10 31.4 0.00 81.8 24.4 2.4 NW | 317 9.0 261 545 6.4 134.3 3.8
9/4/21 - 1200 96.7 90.2 15 38.4 0.00 81.9 24.3 1.2 NNE | 18 4.2 262 512 4.6 134.6 3.8
9/4/21 - 1100 90.7 84.3 21 42.9 0.00 81.8 24.4 0.9 N | 6 3.3 262 448 2.4 109.3 3.8
9/4/21 - 1000 85.1 77.6 31 47.3 0.00 82.2 24.5 0.6 N | 351 2.8 263 344 2.3 89.7 3.7
9/4/21 - 0900 77.6 69.6 46 51.3 0.00 82.6 24.6 0.7 WNW | 284 3.7 265 215 3.0 77.0 3.7
9/4/21 - 0800 69.9 56.5 65 50.1 0.00 82.6 24.6 0.4 E | 81 2.8 270 40 0.7